This is the latest recevied weather packets stored in our database for station/object W4SMH. If no packets are shown the sender has not sent any weather packets the latest 10 day(s).
| Time | Temp. | Humidity | Pressure | Rain* | Wind** | Luminosity | Snow |
|---|---|---|---|---|---|---|---|
| 1777950257 | 8.33° C | 62% | 1010.1 hPa | 0 mm | - | 0 W/m² | - |
| 1777949819 | 17.78° C | 46% | 999 hPa | 0 mm | - | 0 W/m² | - |
| 1777949793 | 17.78° C | 45% | 999 hPa | 0 mm | - | 0 W/m² | - |
| 1777949724 | 18.33° C | 47% | 998.9 hPa | 0 mm | - | 0 W/m² | - |
| 1777949507 | 8.33° C | 60% | 1011.1 hPa | 0 mm | - | 0 W/m² | - |
| 1777948220 | 18.89° C | 46% | 998.4 hPa | 0 mm | - | 0 W/m² | - |
| 1777946673 | 7.78° C | 61% | 1011.4 hPa | 0 mm | - | 0 W/m² | - |
| 1777946654 | 7.78° C | 61% | 1011.3 hPa | 0 mm | - | 0 W/m² | - |
| 1777946564 | 20° C | 50% | 997.4 hPa | 0 mm | - | 0 W/m² | - |
| 1777946323 | 20° C | 51% | 997.2 hPa | 0 mm | - | 0 W/m² | - |
| 1777946209 | 20° C | 50% | 997.2 hPa | 0 mm | - | 0 W/m² | - |
| 1777945504 | 20.56° C | 50% | 996.8 hPa | 0 mm | - | 0 W/m² | - |
| 1777945478 | 20.56° C | 50% | 996.8 hPa | 0 mm | - | 0 W/m² | - |
| 1777945396 | 20.56° C | 50% | 996.8 hPa | 0 mm | - | 0 W/m² | - |
| 1777945212 | 20.56° C | 50% | 996.8 hPa | 0 mm | - | 0 W/m² | - |
| 1777944223 | 21.11° C | 51% | 996.5 hPa | 0 mm | - | 0 W/m² | - |
| 1777944161 | 21.11° C | 51% | 996.5 hPa | 0 mm | - | 0 W/m² | - |
| 1777944135 | 21.11° C | 51% | 996.4 hPa | 0 mm | - | 0 W/m² | - |
| 1777942594 | 22.22° C | 49% | 995.1 hPa | 0 mm | - | 0 W/m² | - |
| 1777942330 | 22.22° C | 48% | 994.9 hPa | 0 mm | - | 7 W/m² | - |
| 1777942236 | 22.22° C | 48% | 994.9 hPa | 0 mm | - | 9 W/m² | - |
| 1777941572 | 7.78° C | 62% | 1011.4 hPa | 0 mm | - | 0 W/m² | - |
| 1777941492 | 22.78° C | 46% | 994.8 hPa | 0 mm | - | 19 W/m² | - |
| 1777940601 | 23.33° C | 44% | 994.6 hPa | 0 mm | - | 30 W/m² | - |
| 1777940305 | 23.33° C | 44% | 994.4 hPa | 0 mm | - | 32 W/m² | - |
* Rain latest hour (hover to see other rain measurements)
** Current wind speed in m/s (hover to see current wind gust speed)